»·PEaware :: N523VF KSBP-KSMX

N523VF :: KSBP-KSMX

FLIGHT INFORMATION

Flight Status: Arrived
Operator: Privately registered:
United States
More flights under this callsign
Pilot: Chris Beckett (15698)
Aircraft: Unknown
(VIPJ)
More flights by this aircraft type
Origin: KSBP San Luis Co Regl
United States
Destination: KSMX Santa Maria Pub/Capt Hancock
United States
More flights between these airports :: More routes between these airports
Route: +
File this flight plan on PilotEdge
Remarks: CAT-04
Altitude:
(Current/Filed)
4,000ft
Speed:
(Current/Filed)
200kts
Departed: 14-Jun-17 03:06 PM
Arrived: 14-Jun-17 03:20 PM
Distance/Time
Traveled:
22nm/0:14
Distance/Time
To Go:
Arrived

Flight Plot

Page will automatically refresh every two minutes.


Map Options




Map Legend


Flown Route
Filed Route
Departure Airport
Arrival Airport
Navaid (VOR, NDB)
Fix

Horizontal Profiles

Position Reports

Time Latitude Longitude Heading Altitude Ground
Speed
14-Jun-17 14:38 35.238478 -120.640022 304 215ft 0kts
14-Jun-17 14:39 35.238478 -120.640022 304 215ft 0kts
14-Jun-17 14:40 35.238478 -120.640022 304 215ft 0kts
14-Jun-17 14:41 35.238478 -120.640022 304 215ft 0kts
14-Jun-17 14:42 35.238478 -120.640022 304 215ft 0kts
14-Jun-17 14:42 35.238478 -120.640022 304 215ft 0kts
14-Jun-17 14:43 35.238478 -120.640022 304 215ft 0kts
14-Jun-17 14:44 35.238478 -120.640022 304 215ft 0kts
14-Jun-17 14:45 35.238478 -120.640022 304 215ft 0kts
14-Jun-17 14:47 35.238478 -120.640022 304 215ft 0kts
14-Jun-17 14:48 35.238478 -120.640022 304 215ft 0kts
14-Jun-17 14:51 35.238485 -120.640021 0 215ft 0kts
14-Jun-17 14:52 35.238485 -120.640021 304 215ft 0kts
14-Jun-17 14:53 35.238485 -120.640021 304 215ft 0kts
14-Jun-17 14:54 35.238485 -120.640021 304 215ft 0kts
14-Jun-17 14:55 35.238485 -120.640021 304 215ft 0kts
14-Jun-17 14:56 35.238485 -120.640021 304 215ft 0kts
14-Jun-17 14:57 35.238485 -120.640021 304 215ft 0kts
14-Jun-17 14:58 35.238485 -120.640021 304 215ft 0kts
14-Jun-17 14:59 35.238122 -120.640042 146 215ft 7kts
14-Jun-17 15:00 35.235698 -120.636222 124 215ft 21kts
14-Jun-17 15:01 35.233317 -120.632435 194 215ft 2kts
14-Jun-17 15:02 35.233274 -120.632457 205 215ft 0kts
14-Jun-17 15:03 35.233274 -120.632457 205 215ft 0kts
14-Jun-17 15:04 35.233274 -120.632457 205 215ft 0kts
14-Jun-17 15:05 35.233274 -120.632457 205 215ft 0kts
14-Jun-17 15:06 35.233274 -120.632457 205 215ft 0kts
14-Jun-17 15:07 35.233273 -120.632458 204 215ft 0kts
14-Jun-17 15:08 35.235186 -120.637170 305 215ft 93kts
14-Jun-17 15:09 35.255452 -120.671479 275 1545ft 190kts
14-Jun-17 15:10 35.211662 -120.679238 154 2622ft 203kts
14-Jun-17 15:11 35.159811 -120.664372 160 3355ft 194kts
14-Jun-17 15:12 35.103896 -120.636663 160 3235ft 232kts
14-Jun-17 15:13 35.048537 -120.616268 158 3641ft 227kts
14-Jun-17 15:14 35.018886 -120.600988 155 3700ft 219kts
14-Jun-17 15:15 34.999068 -120.591933 162 4317ft 172kts
14-Jun-17 15:16 34.999068 -120.591933 162 4317ft 172kts
14-Jun-17 15:17 34.978545 -120.575808 115 4014ft 194kts
14-Jun-17 15:18 34.950729 -120.521863 133 4021ft 189kts
14-Jun-17 15:19 34.910644 -120.478137 144 1642ft 167kts
14-Jun-17 15:20 34.879717 -120.443919 118 635ft 117kts
14-Jun-17 15:21 34.885479 -120.428146 298 431ft 89kts
14-Jun-17 15:22 34.898102 -120.452000 326 265ft 3kts
14-Jun-17 15:23 34.898690 -120.451289 92 265ft 0kts
14-Jun-17 15:24 34.898690 -120.451289 92 265ft 0kts
14-Jun-17 15:25 34.898690 -120.451289 92 265ft 0kts
14-Jun-17 15:26 34.898831 -120.450778 13 265ft 10kts
14-Jun-17 15:27 34.900806 -120.451473 237 265ft 0kts
14-Jun-17 15:28 34.900806 -120.451473 237 265ft 0kts
14-Jun-17 15:29 34.900806 -120.451473 237 265ft 0kts
14-Jun-17 15:30 34.900806 -120.451473 237 265ft 0kts
14-Jun-17 15:31 34.900806 -120.451473 237 265ft 0kts
14-Jun-17 15:32 34.900806 -120.451473 237 265ft 0kts
14-Jun-17 15:33 34.900806 -120.451473 237 265ft 0kts
14-Jun-17 15:34 34.900806 -120.451473 237 265ft 0kts
14-Jun-17 15:35 34.900806 -120.451473 237 265ft 0kts
14-Jun-17 15:36 34.900806 -120.451473 237 265ft 0kts

Navigation Log

Ident Type
1. KSBP Airport
2. KSMX Airport